createdAt,value
2018-02-22T00:00:59.932Z,998.07
2018-02-22T00:01:59.919Z,998.03
2018-02-22T00:02:59.920Z,998.02
2018-02-22T00:03:59.860Z,998.02
2018-02-22T00:04:59.838Z,997.97
2018-02-22T00:05:59.838Z,998.00
2018-02-22T00:06:59.805Z,997.98
2018-02-22T00:07:59.754Z,997.95
2018-02-22T00:08:59.758Z,997.96
2018-02-22T00:09:59.747Z,997.92
2018-02-22T00:10:59.668Z,997.88
2018-02-22T00:11:59.656Z,997.87
2018-02-22T00:12:59.645Z,997.91
2018-02-22T00:13:59.592Z,997.89
2018-02-22T00:14:59.578Z,997.86
2018-02-22T00:15:59.574Z,997.87
2018-02-22T00:16:59.522Z,997.84
2018-02-22T00:17:59.531Z,997.83
2018-02-22T00:18:59.466Z,997.85
2018-02-22T00:19:59.476Z,997.84
2018-02-22T00:20:59.428Z,997.84
2018-02-22T00:21:59.404Z,997.81
2018-02-22T00:22:59.388Z,997.83
2018-02-22T00:23:59.359Z,997.82
2018-02-22T00:24:59.324Z,997.85
2018-02-22T00:25:59.311Z,997.86
2018-02-22T00:26:59.263Z,997.85
2018-02-22T00:27:59.264Z,997.85
2018-02-22T00:28:59.238Z,997.93
2018-02-22T00:29:59.230Z,997.88
2018-02-22T00:31:22.920Z,997.88
2018-02-22T00:31:59.171Z,997.84
2018-02-22T00:32:59.120Z,997.85
2018-02-22T00:33:59.093Z,997.87
2018-02-22T00:34:59.085Z,997.85
2018-02-22T00:35:59.066Z,997.84
2018-02-22T00:36:59.013Z,997.84
2018-02-22T00:37:59.007Z,997.84
2018-02-22T00:38:59.051Z,997.84
2018-02-22T00:39:58.946Z,997.84
2018-02-22T00:40:58.958Z,997.80
2018-02-22T00:41:58.907Z,997.78
2018-02-22T00:42:58.881Z,997.82
2018-02-22T00:43:58.851Z,997.82
2018-02-22T00:44:58.814Z,997.81
2018-02-22T00:45:58.845Z,997.83
2018-02-22T00:46:58.754Z,997.83
2018-02-22T00:47:58.755Z,997.84
2018-02-22T00:48:58.722Z,997.86
2018-02-22T00:49:58.701Z,997.83
2018-02-22T00:50:58.664Z,997.83
2018-02-22T00:51:58.629Z,997.87
2018-02-22T00:52:58.608Z,997.83
2018-02-22T00:53:58.597Z,997.85
2018-02-22T00:54:58.552Z,997.83
2018-02-22T00:55:58.538Z,997.79
2018-02-22T00:56:58.501Z,997.83
2018-02-22T00:57:58.488Z,997.84
2018-02-22T00:58:58.478Z,997.86
2018-02-22T00:59:58.433Z,997.85
2018-02-22T01:00:58.406Z,997.84
2018-02-22T01:01:58.370Z,997.82
2018-02-22T01:02:58.362Z,997.83
2018-02-22T01:03:58.344Z,997.80
2018-02-22T01:04:58.299Z,997.83
2018-02-22T01:05:58.266Z,997.81
2018-02-22T01:06:58.287Z,997.78
2018-02-22T01:07:58.227Z,997.75
2018-02-22T01:08:58.233Z,997.78
2018-02-22T01:09:58.190Z,997.70
2018-02-22T01:10:58.155Z,997.75
2018-02-22T01:11:58.147Z,997.74
2018-02-22T01:12:58.114Z,997.74
2018-02-22T01:13:58.076Z,997.77
2018-02-22T01:14:58.064Z,997.73
2018-02-22T01:15:58.027Z,997.75
2018-02-22T01:16:58.018Z,997.73
2018-02-22T01:17:58.054Z,997.75
2018-02-22T01:18:57.964Z,997.75
2018-02-22T01:19:57.906Z,997.69
2018-02-22T01:20:57.914Z,997.74
2018-02-22T01:21:57.898Z,997.73
2018-02-22T01:22:57.829Z,997.72
2018-02-22T01:23:57.806Z,997.73
2018-02-22T01:24:57.816Z,997.73
2018-02-22T01:25:57.773Z,997.71
2018-02-22T01:26:57.730Z,997.75
2018-02-22T01:27:57.740Z,997.78
2018-02-22T01:28:57.724Z,997.74
2018-02-22T01:29:57.647Z,997.75
2018-02-22T01:30:57.662Z,997.76
2018-02-22T01:31:57.634Z,997.80
2018-02-22T01:32:57.605Z,997.75
2018-02-22T01:33:57.547Z,997.78
2018-02-22T01:34:57.546Z,997.77
2018-02-22T01:35:57.569Z,997.80
2018-02-22T01:36:57.506Z,997.79
2018-02-22T01:37:57.493Z,997.79
2018-02-22T01:38:57.416Z,997.76
2018-02-22T01:39:57.411Z,997.72
2018-02-22T01:40:57.415Z,997.77
2018-02-22T01:41:57.389Z,997.74
2018-02-22T01:42:57.371Z,997.76
2018-02-22T01:43:57.327Z,997.73
2018-02-22T01:44:57.269Z,997.73
2018-02-22T01:45:57.244Z,997.79
2018-02-22T01:46:57.218Z,997.74
2018-02-22T01:47:57.196Z,997.74
2018-02-22T01:48:57.202Z,997.73
2018-02-22T01:49:57.177Z,997.72
2018-02-22T01:50:57.129Z,997.78
2018-02-22T01:51:57.134Z,997.72
2018-02-22T01:52:57.072Z,997.74
2018-02-22T01:53:57.089Z,997.74
2018-02-22T01:54:57.028Z,997.77
2018-02-22T01:55:56.992Z,997.72
2018-02-22T01:56:56.983Z,997.74
2018-02-22T01:57:56.950Z,997.72
2018-02-22T01:58:56.928Z,997.76
2018-02-22T01:59:56.909Z,997.72
2018-02-22T02:00:56.914Z,997.78
2018-02-22T02:01:56.873Z,997.74
2018-02-22T02:02:56.842Z,997.73
2018-02-22T02:03:56.803Z,997.74
2018-02-22T02:04:56.766Z,997.70
2018-02-22T02:05:56.763Z,997.71
2018-02-22T02:06:56.729Z,997.68
2018-02-22T02:07:56.677Z,997.68
2018-02-22T02:08:56.689Z,997.68
2018-02-22T02:09:56.660Z,997.65
2018-02-22T02:10:56.609Z,997.66
2018-02-22T02:11:56.591Z,997.65
2018-02-22T02:12:56.573Z,997.68
2018-02-22T02:13:56.526Z,997.65
2018-02-22T02:14:56.547Z,997.61
2018-02-22T02:15:56.517Z,997.61
2018-02-22T02:16:56.454Z,997.61
2018-02-22T02:17:56.450Z,997.60
2018-02-22T02:18:56.421Z,997.60
2018-02-22T02:19:56.397Z,997.61
2018-02-22T02:20:56.373Z,997.59
2018-02-22T02:21:56.366Z,997.62
2018-02-22T02:22:56.322Z,997.57
2018-02-22T02:23:56.280Z,997.57
2018-02-22T02:24:56.330Z,997.53
2018-02-22T02:25:56.270Z,997.52
2018-02-22T02:26:56.193Z,997.55
2018-02-22T02:27:56.199Z,997.53
2018-02-22T02:28:56.169Z,997.50
2018-02-22T02:29:56.168Z,997.52
2018-02-22T02:30:56.132Z,997.49
2018-02-22T02:31:56.108Z,997.49
2018-02-22T02:32:56.066Z,997.45
2018-02-22T02:33:56.038Z,997.48
2018-02-22T02:34:56.009Z,997.48
2018-02-22T02:35:55.989Z,997.47
2018-02-22T02:36:55.966Z,997.48
2018-02-22T02:37:55.936Z,997.47
2018-02-22T02:38:55.888Z,997.49
2018-02-22T02:39:55.865Z,997.45
2018-02-22T02:40:55.882Z,997.44
2018-02-22T02:41:55.846Z,997.46
2018-02-22T02:42:55.796Z,997.44
2018-02-22T02:43:55.770Z,997.48
2018-02-22T02:44:55.774Z,997.44
2018-02-22T02:45:55.735Z,997.42
2018-02-22T02:46:55.695Z,997.44
2018-02-22T02:47:55.677Z,997.45
2018-02-22T02:48:55.661Z,997.43
2018-02-22T02:49:55.611Z,997.46
2018-02-22T02:50:55.610Z,997.44
2018-02-22T02:51:55.555Z,997.40
2018-02-22T02:52:55.577Z,997.41
2018-02-22T02:53:55.550Z,997.40
2018-02-22T02:54:55.523Z,997.34
2018-02-22T02:55:55.480Z,997.41
2018-02-22T02:56:55.447Z,997.40
2018-02-22T02:57:55.457Z,997.40
2018-02-22T02:58:55.381Z,997.42
2018-02-22T02:59:55.401Z,997.42
2018-02-22T03:00:55.356Z,997.39
2018-02-22T03:01:55.314Z,997.40
2018-02-22T03:02:55.299Z,997.39
2018-02-22T03:03:55.275Z,997.42
2018-02-22T03:04:55.224Z,997.38
2018-02-22T03:05:55.234Z,997.41
2018-02-22T03:06:55.190Z,997.39
2018-02-22T03:07:55.151Z,997.45
2018-02-22T03:08:55.131Z,997.42
2018-02-22T03:09:55.133Z,997.39
2018-02-22T03:10:55.091Z,997.39
2018-02-22T03:11:55.048Z,997.40
2018-02-22T03:12:55.048Z,997.40
2018-02-22T03:13:55.030Z,997.38
2018-02-22T03:14:54.963Z,997.40
2018-02-22T03:15:55.028Z,997.43
2018-02-22T03:16:54.936Z,997.38
2018-02-22T03:17:54.899Z,997.44
2018-02-22T03:18:54.887Z,997.40
2018-02-22T03:19:54.868Z,997.47
2018-02-22T03:20:54.830Z,997.50
2018-02-22T03:21:54.798Z,997.43
2018-02-22T03:22:54.798Z,997.44
2018-02-22T03:23:54.752Z,997.42
2018-02-22T03:24:54.734Z,997.41
2018-02-22T03:25:54.722Z,997.41
2018-02-22T03:26:54.707Z,997.42
2018-02-22T03:27:54.646Z,997.41
2018-02-22T03:28:54.649Z,997.47
2018-02-22T03:29:54.621Z,997.47
2018-02-22T03:30:54.563Z,997.43
2018-02-22T03:31:54.576Z,997.43
2018-02-22T03:32:54.555Z,997.44
2018-02-22T03:33:54.540Z,997.46
2018-02-22T03:34:54.479Z,997.40
2018-02-22T03:35:54.474Z,997.43
2018-02-22T03:36:54.426Z,997.45
2018-02-22T03:37:54.394Z,997.44
2018-02-22T03:38:54.381Z,997.41
2018-02-22T03:39:54.345Z,997.42
2018-02-22T03:40:54.314Z,997.44
2018-02-22T03:41:54.360Z,997.40
2018-02-22T03:42:54.239Z,997.40
2018-02-22T03:43:54.225Z,997.41
2018-02-22T03:44:54.228Z,997.39
2018-02-22T03:45:54.185Z,997.38
2018-02-22T03:46:54.152Z,997.37
2018-02-22T03:47:54.159Z,997.34
2018-02-22T03:48:54.102Z,997.37
2018-02-22T03:49:54.080Z,997.30
2018-02-22T03:50:54.069Z,997.31
2018-02-22T03:51:54.031Z,997.30
2018-02-22T03:52:54.012Z,997.30
2018-02-22T03:53:53.982Z,997.34
2018-02-22T03:54:53.952Z,997.33
2018-02-22T03:55:53.905Z,997.31
2018-02-22T03:56:53.900Z,997.33
2018-02-22T03:57:53.853Z,997.34
2018-02-22T03:58:53.849Z,997.36
2018-02-22T03:59:53.832Z,997.34
2018-02-22T04:00:53.773Z,997.37
2018-02-22T04:01:53.777Z,997.39
2018-02-22T04:02:53.752Z,997.37
2018-02-22T04:03:53.736Z,997.38
2018-02-22T04:04:53.672Z,997.37
2018-02-22T04:05:53.660Z,997.34
2018-02-22T04:06:53.652Z,997.40
2018-02-22T04:07:53.593Z,997.40
2018-02-22T04:08:53.578Z,997.41
2018-02-22T04:09:53.578Z,997.42
2018-02-22T04:10:53.534Z,997.46
2018-02-22T04:11:53.537Z,997.44
2018-02-22T04:12:53.500Z,997.46
2018-02-22T04:13:53.479Z,997.46
2018-02-22T04:14:53.457Z,997.46
2018-02-22T04:15:53.408Z,997.45
2018-02-22T04:16:53.400Z,997.47
2018-02-22T04:17:53.363Z,997.46
2018-02-22T04:18:53.348Z,997.47
2018-02-22T04:19:53.323Z,997.50
2018-02-22T04:20:53.279Z,997.51
2018-02-22T04:21:53.254Z,997.47
2018-02-22T04:22:53.241Z,997.46
2018-02-22T04:23:53.202Z,997.43
2018-02-22T04:24:53.188Z,997.42
2018-02-22T04:25:53.117Z,997.40
2018-02-22T04:26:53.121Z,997.41
2018-02-22T04:27:53.087Z,997.41
2018-02-22T04:28:53.074Z,997.45
2018-02-22T04:29:53.027Z,997.47
2018-02-22T04:30:53.015Z,997.43
2018-02-22T04:31:52.988Z,997.43
2018-02-22T04:32:52.985Z,997.44
2018-02-22T04:33:52.952Z,997.43
2018-02-22T04:34:52.902Z,997.44
2018-02-22T04:35:52.879Z,997.48
2018-02-22T04:36:52.841Z,997.44
2018-02-22T04:37:52.834Z,997.46
2018-02-22T04:38:52.800Z,997.49
2018-02-22T04:39:52.767Z,997.48
2018-02-22T04:40:52.808Z,997.51
2018-02-22T04:41:52.709Z,997.50
2018-02-22T04:42:52.717Z,997.50
2018-02-22T04:43:52.672Z,997.48
2018-02-22T04:44:52.680Z,997.48
2018-02-22T04:45:52.642Z,997.51
2018-02-22T04:46:52.600Z,997.52
2018-02-22T04:47:52.565Z,997.50
2018-02-22T04:48:52.583Z,997.48
2018-02-22T04:49:52.519Z,997.51
2018-02-22T04:50:52.482Z,997.53
2018-02-22T04:51:52.478Z,997.49
2018-02-22T04:52:52.435Z,997.52
2018-02-22T04:53:52.453Z,997.51
2018-02-22T04:54:52.410Z,997.46
2018-02-22T04:55:52.359Z,997.47
2018-02-22T04:56:52.338Z,997.46
2018-02-22T04:57:52.299Z,997.49
2018-02-22T04:58:52.289Z,997.45
2018-02-22T04:59:52.291Z,997.49
2018-02-22T05:00:52.233Z,997.48
2018-02-22T05:01:52.194Z,997.47
2018-02-22T05:02:52.187Z,997.49
2018-02-22T05:03:52.173Z,997.46
2018-02-22T05:04:52.142Z,997.48
2018-02-22T05:05:52.124Z,997.42
2018-02-22T05:06:52.115Z,997.44
2018-02-22T05:07:52.038Z,997.45
2018-02-22T05:08:52.032Z,997.41
2018-02-22T05:09:52.031Z,997.38
2018-02-22T05:10:51.952Z,997.40
2018-02-22T05:11:51.931Z,997.38
2018-02-22T05:12:51.914Z,997.40
2018-02-22T05:13:51.918Z,997.39
2018-02-22T05:14:51.860Z,997.41
2018-02-22T05:15:51.833Z,997.43
2018-02-22T05:16:51.845Z,997.45
2018-02-22T05:17:51.777Z,997.42
2018-02-22T05:18:51.755Z,997.42
2018-02-22T05:19:51.720Z,997.43
2018-02-22T05:20:51.735Z,997.41
2018-02-22T05:21:51.791Z,997.45
2018-02-22T05:22:51.663Z,997.45
2018-02-22T05:23:51.649Z,997.45
2018-02-22T05:24:51.597Z,997.44
2018-02-22T05:25:51.567Z,997.43
2018-02-22T05:26:51.610Z,997.41
2018-02-22T05:27:51.556Z,997.41
2018-02-22T05:28:51.535Z,997.40
2018-02-22T05:29:51.485Z,997.39
2018-02-22T05:30:51.447Z,997.39
2018-02-22T05:31:51.459Z,997.42
2018-02-22T05:32:51.388Z,997.43
2018-02-22T05:33:51.359Z,997.38
2018-02-22T05:34:51.341Z,997.37
2018-02-22T05:35:51.317Z,997.40
2018-02-22T05:36:51.287Z,997.43
2018-02-22T05:37:51.248Z,997.39
2018-02-22T05:38:51.211Z,997.40
2018-02-22T05:39:51.202Z,997.42
2018-02-22T05:40:51.192Z,997.42
2018-02-22T05:41:51.159Z,997.41
2018-02-22T05:42:51.140Z,997.44
2018-02-22T05:43:51.089Z,997.40
2018-02-22T05:44:51.068Z,997.42
2018-02-22T05:45:51.036Z,997.41
2018-02-22T05:46:51.030Z,997.43
2018-02-22T05:47:50.994Z,997.40
2018-02-22T05:48:50.980Z,997.45
2018-02-22T05:49:52.536Z,997.45
2018-02-22T05:50:50.915Z,997.47
2018-02-22T05:51:50.877Z,997.46
2018-02-22T05:52:50.867Z,997.53
2018-02-22T05:53:50.847Z,997.50
2018-02-22T05:54:50.829Z,997.51
2018-02-22T05:55:50.772Z,997.54
2018-02-22T05:56:50.745Z,997.54
2018-02-22T05:57:50.754Z,997.56
2018-02-22T05:58:50.724Z,997.54
2018-02-22T05:59:50.678Z,997.54
2018-02-22T06:00:50.661Z,997.54
2018-02-22T06:01:50.648Z,997.53
2018-02-22T06:02:50.598Z,997.50
2018-02-22T06:03:50.560Z,997.55
2018-02-22T06:04:50.592Z,997.53
2018-02-22T06:05:50.514Z,997.53
2018-02-22T06:06:50.534Z,997.55
2018-02-22T06:07:50.542Z,997.57
2018-02-22T06:08:50.447Z,997.56
2018-02-22T06:09:50.420Z,997.56
2018-02-22T06:10:50.406Z,997.55
2018-02-22T06:11:50.385Z,997.55
2018-02-22T06:12:50.392Z,997.56
2018-02-22T06:13:50.335Z,997.58
2018-02-22T06:14:50.300Z,997.55
2018-02-22T06:15:50.284Z,997.57
2018-02-22T06:16:50.251Z,997.56
2018-02-22T06:17:50.222Z,997.59
2018-02-22T06:18:50.179Z,997.62
2018-02-22T06:19:50.233Z,997.60
2018-02-22T06:20:51.704Z,997.58
2018-02-22T06:21:50.179Z,997.62
2018-02-22T06:22:50.075Z,997.62
2018-02-22T06:23:50.087Z,997.62
2018-02-22T06:24:50.019Z,997.63
2018-02-22T06:25:50.028Z,997.65
2018-02-22T06:26:49.960Z,997.65
2018-02-22T06:27:49.951Z,997.69
2018-02-22T06:28:49.948Z,997.69
2018-02-22T06:29:49.893Z,997.71
2018-02-22T06:30:49.878Z,997.70
2018-02-22T06:31:49.876Z,997.67
2018-02-22T06:32:49.832Z,997.67
2018-02-22T06:33:49.796Z,997.71
2018-02-22T06:34:49.778Z,997.69
2018-02-22T06:35:49.738Z,997.73
2018-02-22T06:36:49.704Z,997.76
2018-02-22T06:37:49.689Z,997.74
2018-02-22T06:38:49.723Z,997.74
2018-02-22T06:39:49.613Z,997.80
2018-02-22T06:40:49.628Z,997.78
2018-02-22T06:41:49.573Z,997.83
2018-02-22T06:42:49.594Z,997.84
2018-02-22T06:43:49.520Z,997.88
2018-02-22T06:44:49.515Z,997.86
2018-02-22T06:45:49.482Z,997.92
2018-02-22T06:46:49.458Z,997.89
2018-02-22T06:47:49.429Z,997.90
2018-02-22T06:48:49.386Z,997.93
2018-02-22T06:49:49.352Z,997.91
2018-02-22T06:50:49.330Z,997.90
2018-02-22T06:51:49.332Z,997.93
2018-02-22T06:52:49.301Z,997.94
2018-02-22T06:53:49.252Z,997.99
2018-02-22T06:54:49.230Z,997.98
2018-02-22T06:55:49.222Z,997.97
2018-02-22T06:56:49.178Z,997.94
2018-02-22T06:57:49.200Z,997.97
2018-02-22T06:58:49.135Z,997.95
2018-02-22T06:59:49.106Z,997.99
2018-02-22T07:00:49.090Z,997.99
2018-02-22T07:01:49.053Z,997.98
2018-02-22T07:02:49.028Z,997.95
2018-02-22T07:03:49.004Z,998.00
2018-02-22T07:04:49.009Z,997.97
2018-02-22T07:05:48.941Z,997.96
2018-02-22T07:06:48.932Z,997.97
2018-02-22T07:07:48.895Z,997.96
2018-02-22T07:08:48.892Z,997.97
2018-02-22T07:09:48.840Z,998.02
2018-02-22T07:10:48.824Z,998.00
2018-02-22T07:11:48.820Z,998.02
2018-02-22T07:12:48.812Z,998.02
2018-02-22T07:13:48.763Z,998.03
2018-02-22T07:14:48.719Z,998.02
2018-02-22T07:15:48.680Z,998.06
2018-02-22T07:16:48.750Z,998.05
2018-02-22T07:17:48.638Z,998.02
2018-02-22T07:18:48.641Z,998.10
2018-02-22T07:19:48.579Z,998.06
2018-02-22T07:20:48.613Z,998.01
2018-02-22T07:21:48.607Z,998.02
2018-02-22T07:22:48.531Z,997.98
2018-02-22T07:23:48.474Z,997.95
2018-02-22T07:24:48.476Z,997.96
2018-02-22T07:25:48.444Z,997.98
2018-02-22T07:26:48.448Z,997.97
2018-02-22T07:27:48.759Z,998.00
2018-02-22T07:28:48.384Z,997.95
2018-02-22T07:29:48.362Z,997.96
2018-02-22T07:30:48.358Z,997.97
2018-02-22T07:31:48.337Z,997.95
2018-02-22T07:32:48.294Z,997.98
2018-02-22T07:33:48.248Z,997.98
2018-02-22T07:34:48.275Z,997.98
2018-02-22T07:35:48.183Z,998.01
2018-02-22T07:36:48.166Z,997.98
2018-02-22T07:37:48.155Z,997.96
2018-02-22T07:38:48.094Z,997.99
2018-02-22T07:39:48.067Z,998.03
2018-02-22T07:40:48.072Z,998.00
2018-02-22T07:41:48.037Z,998.05
2018-02-22T07:42:48.025Z,998.00
2018-02-22T07:43:47.960Z,998.01
2018-02-22T07:44:47.964Z,998.04
2018-02-22T07:45:47.914Z,998.05
2018-02-22T07:46:47.910Z,998.03
2018-02-22T07:47:47.878Z,998.02
2018-02-22T07:48:47.879Z,998.09
2018-02-22T07:49:47.838Z,998.08
2018-02-22T07:50:47.844Z,998.08
2018-02-22T07:51:47.809Z,998.10
2018-02-22T07:52:47.741Z,998.07
2018-02-22T07:53:47.717Z,998.13
2018-02-22T07:54:47.702Z,998.13
2018-02-22T07:55:47.681Z,998.13
2018-02-22T07:56:47.717Z,998.15
2018-02-22T07:57:47.639Z,998.24
2018-02-22T07:58:47.672Z,998.26
2018-02-22T07:59:47.612Z,998.18
2018-02-22T08:00:47.555Z,998.26
2018-02-22T08:01:47.529Z,998.26
2018-02-22T08:02:47.538Z,998.46
2018-02-22T08:03:47.490Z,998.39
2018-02-22T08:04:47.456Z,998.35
2018-02-22T08:05:47.424Z,998.19
2018-02-22T08:06:47.399Z,998.31
2018-02-22T08:07:47.372Z,998.20
2018-02-22T08:08:47.342Z,998.27
2018-02-22T08:09:47.413Z,998.15
2018-02-22T08:10:47.324Z,998.23
2018-02-22T08:11:47.332Z,998.19
2018-02-22T08:12:47.242Z,998.21
2018-02-22T08:13:47.253Z,998.25
2018-02-22T08:14:47.219Z,998.21
2018-02-22T08:15:47.157Z,998.27
2018-02-22T08:16:47.186Z,998.26
2018-02-22T08:17:47.123Z,998.24
2018-02-22T08:18:47.090Z,998.13
2018-02-22T08:19:47.079Z,998.22
2018-02-22T08:20:47.066Z,998.19
2018-02-22T08:21:47.030Z,998.17
2018-02-22T08:22:47.031Z,998.21
2018-02-22T08:23:47.006Z,998.19
2018-02-22T08:24:46.963Z,998.11
2018-02-22T08:25:46.955Z,998.18
2018-02-22T08:26:46.909Z,998.20
2018-02-22T08:27:46.960Z,998.21
2018-02-22T08:28:46.871Z,998.18
2018-02-22T08:29:46.841Z,998.09
2018-02-22T08:30:46.862Z,998.11
2018-02-22T08:31:46.796Z,998.09
2018-02-22T08:32:46.775Z,998.03
2018-02-22T08:33:46.900Z,998.07
2018-02-22T08:34:46.740Z,998.15
2018-02-22T08:35:46.713Z,998.12
2018-02-22T08:36:46.679Z,998.08
2018-02-22T08:37:46.657Z,997.99
2018-02-22T08:38:46.620Z,997.99
2018-02-22T08:39:46.604Z,998.06
2018-02-22T08:40:46.587Z,998.04
2018-02-22T08:41:46.576Z,998.07
2018-02-22T08:42:46.544Z,998.11
2018-02-22T08:43:46.508Z,998.07
2018-02-22T08:44:46.508Z,997.99
2018-02-22T08:45:46.465Z,998.09
2018-02-22T08:46:46.424Z,998.08
2018-02-22T08:47:46.425Z,998.11
2018-02-22T08:48:46.401Z,998.17
2018-02-22T08:49:46.369Z,998.13
2018-02-22T08:50:46.368Z,998.12
2018-02-22T08:51:46.353Z,998.11
2018-02-22T08:52:46.303Z,998.16
2018-02-22T08:53:46.286Z,998.12
2018-02-22T08:54:46.252Z,998.21
2018-02-22T08:55:46.246Z,998.20
2018-02-22T08:56:46.211Z,998.16
2018-02-22T08:57:46.213Z,998.28
2018-02-22T08:58:46.193Z,998.24
2018-02-22T08:59:46.148Z,998.32
2018-02-22T09:00:46.143Z,998.27
2018-02-22T09:01:46.110Z,998.31
2018-02-22T09:02:46.115Z,998.34
2018-02-22T09:03:46.093Z,998.43
2018-02-22T09:04:46.077Z,998.28
2018-02-22T09:05:46.037Z,998.36
2018-02-22T09:06:46.005Z,998.35
2018-02-22T09:07:45.988Z,998.28
2018-02-22T09:08:46.054Z,998.39
2018-02-22T09:09:45.988Z,998.35
2018-02-22T09:10:45.935Z,998.44
2018-02-22T09:11:45.928Z,998.08
2018-02-22T09:12:45.903Z,998.45
2018-02-22T09:13:45.880Z,998.44
2018-02-22T09:14:45.856Z,998.48
2018-02-22T09:15:45.838Z,998.48
2018-02-22T09:16:45.828Z,998.16
2018-02-22T09:17:45.805Z,998.16
2018-02-22T09:18:45.785Z,998.35
2018-02-22T09:19:45.773Z,998.52
2018-02-22T09:20:45.749Z,998.51
2018-02-22T09:21:45.749Z,998.12
2018-02-22T09:22:45.701Z,998.14
2018-02-22T09:23:45.702Z,998.33
2018-02-22T09:24:45.685Z,998.15
2018-02-22T09:25:45.662Z,998.16
2018-02-22T09:26:45.665Z,998.10
2018-02-22T09:27:45.608Z,998.18
2018-02-22T09:28:45.620Z,998.13
2018-02-22T09:29:45.578Z,998.04
2018-02-22T09:30:45.590Z,998.03
2018-02-22T09:31:45.537Z,998.05
2018-02-22T09:32:45.517Z,998.05
2018-02-22T09:33:45.524Z,998.14
2018-02-22T09:34:45.497Z,998.08
2018-02-22T09:35:45.479Z,998.10
2018-02-22T09:36:45.453Z,998.06
2018-02-22T09:37:45.436Z,998.01
2018-02-22T09:38:45.409Z,998.07
2018-02-22T09:39:45.398Z,998.06
2018-02-22T09:40:45.380Z,998.02
2018-02-22T09:41:45.359Z,998.01
2018-02-22T09:42:45.332Z,998.00
2018-02-22T09:43:45.358Z,997.99
2018-02-22T09:44:45.306Z,998.01
2018-02-22T09:45:45.277Z,998.03
2018-02-22T09:46:45.245Z,998.07
2018-02-22T09:47:45.226Z,998.04
2018-02-22T09:48:45.219Z,998.14
2018-02-22T09:49:45.186Z,998.07
2018-02-22T09:50:45.156Z,998.14
2018-02-22T09:51:45.132Z,998.18
2018-02-22T09:52:45.115Z,998.11
2018-02-22T09:53:45.086Z,998.20
2018-02-22T09:54:45.081Z,998.19
2018-02-22T09:55:45.060Z,998.20
2018-02-22T09:56:45.030Z,998.23
2018-02-22T09:57:45.003Z,998.15
2018-02-22T09:58:44.975Z,998.22
2018-02-22T09:59:44.966Z,998.24
2018-02-22T10:00:44.936Z,998.24
2018-02-22T10:01:44.915Z,998.22
2018-02-22T10:02:44.894Z,998.36
2018-02-22T10:03:44.901Z,998.27
2018-02-22T10:04:44.867Z,998.22
2018-02-22T10:05:44.837Z,998.19
2018-02-22T10:06:44.820Z,998.25
2018-02-22T10:07:44.808Z,998.19
2018-02-22T10:08:44.774Z,998.16
2018-02-22T10:09:44.763Z,998.20
2018-02-22T10:10:44.727Z,998.21
2018-02-22T10:11:44.706Z,998.22
2018-02-22T10:12:44.717Z,998.15
2018-02-22T10:13:44.697Z,998.18
2018-02-22T10:14:44.629Z,998.18
2018-02-22T10:15:44.632Z,998.26
2018-02-22T10:16:44.635Z,998.18
2018-02-22T10:17:44.576Z,998.33
2018-02-22T10:18:44.862Z,998.14
2018-02-22T10:19:44.538Z,998.11
2018-02-22T10:20:44.523Z,998.16
2018-02-22T10:21:44.490Z,998.21
2018-02-22T10:22:44.462Z,998.21
2018-02-22T10:23:44.511Z,998.32
2018-02-22T10:24:44.435Z,998.24
2018-02-22T10:25:44.399Z,998.41
2018-02-22T10:26:44.394Z,998.49
2018-02-22T10:27:44.358Z,998.41
2018-02-22T10:28:44.340Z,998.18
2018-02-22T10:29:44.312Z,998.41
2018-02-22T10:30:44.341Z,998.19
2018-02-22T10:31:44.294Z,998.54
2018-02-22T10:32:44.278Z,998.34
2018-02-22T10:33:44.229Z,998.17
2018-02-22T10:34:44.211Z,998.22
2018-02-22T10:35:44.209Z,998.35
2018-02-22T10:36:44.196Z,998.13
2018-02-22T10:37:44.161Z,998.12
2018-02-22T10:38:44.135Z,998.09
2018-02-22T10:39:44.146Z,998.13
2018-02-22T10:40:44.116Z,998.14
2018-02-22T10:41:44.092Z,998.05
2018-02-22T10:42:44.072Z,998.06
2018-02-22T10:43:44.050Z,998.03
2018-02-22T10:44:44.079Z,998.07
2018-02-22T10:45:44.006Z,998.11
2018-02-22T10:46:43.996Z,998.10
2018-02-22T10:47:43.986Z,998.23
2018-02-22T10:48:43.966Z,998.06
2018-02-22T10:49:43.937Z,998.58
2018-02-22T10:50:43.924Z,998.01
2018-02-22T10:51:43.898Z,998.28
2018-02-22T10:52:43.912Z,998.06
2018-02-22T10:53:43.849Z,998.05
2018-02-22T10:54:43.844Z,998.04
2018-02-22T10:55:43.806Z,998.06
2018-02-22T10:56:43.784Z,998.28
2018-02-22T10:57:43.778Z,998.09
2018-02-22T10:58:43.788Z,998.52
2018-02-22T10:59:43.750Z,998.61
2018-02-22T11:00:43.707Z,997.99
2018-02-22T11:01:43.700Z,998.06
2018-02-22T11:02:43.684Z,998.64
2018-02-22T11:03:43.663Z,998.16
2018-02-22T11:04:43.637Z,997.87
2018-02-22T11:05:43.623Z,997.92
2018-02-22T11:06:43.596Z,998.59
2018-02-22T11:07:43.586Z,998.53
2018-02-22T11:08:43.542Z,998.55
2018-02-22T11:09:43.536Z,998.59
2018-02-22T11:10:43.528Z,998.59
2018-02-22T11:11:43.515Z,998.64
2018-02-22T11:12:43.467Z,998.52
2018-02-22T11:13:43.482Z,998.54
2018-02-22T11:14:43.454Z,998.53
2018-02-22T11:15:43.464Z,998.56
2018-02-22T11:16:43.398Z,998.55
2018-02-22T11:17:43.446Z,998.63
2018-02-22T11:18:43.384Z,998.60
2018-02-22T11:19:43.386Z,998.57
2018-02-22T11:20:43.329Z,997.95
2018-02-22T11:21:43.345Z,997.91
2018-02-22T11:22:43.329Z,997.83
2018-02-22T11:23:43.300Z,997.83
2018-02-22T11:24:43.291Z,998.46
2018-02-22T11:25:43.324Z,998.18
2018-02-22T11:26:43.257Z,997.79
2018-02-22T11:27:43.260Z,997.83
2018-02-22T11:28:43.243Z,997.81
2018-02-22T11:29:43.236Z,997.83
2018-02-22T11:30:43.248Z,997.73
2018-02-22T11:31:43.188Z,997.68
2018-02-22T11:32:43.157Z,997.72
2018-02-22T11:33:43.213Z,997.76
2018-02-22T11:34:43.111Z,997.83
2018-02-22T11:35:43.097Z,997.72
2018-02-22T11:36:43.072Z,997.83
2018-02-22T11:37:43.077Z,998.17
2018-02-22T11:38:43.073Z,997.74
2018-02-22T11:39:43.036Z,997.74
2018-02-22T11:40:43.014Z,997.73
2018-02-22T11:41:43.012Z,997.88
2018-02-22T11:42:42.957Z,998.50
2018-02-22T11:43:42.968Z,998.48
2018-02-22T11:44:42.941Z,997.70
2018-02-22T11:45:42.901Z,998.52
2018-02-22T11:46:42.888Z,998.20
2018-02-22T11:47:42.877Z,998.48
2018-02-22T11:48:42.941Z,998.22
2018-02-22T11:49:42.861Z,997.99
2018-02-22T11:50:42.802Z,997.70
2018-02-22T11:51:42.828Z,997.66
2018-02-22T11:52:42.825Z,998.44
2018-02-22T11:53:42.794Z,997.72
2018-02-22T11:54:42.743Z,997.67
2018-02-22T11:55:42.787Z,998.44
2018-02-22T11:56:42.701Z,998.39
2018-02-22T11:57:42.667Z,998.48
2018-02-22T11:58:42.692Z,998.46
2018-02-22T11:59:42.638Z,998.46
2018-02-22T12:00:42.704Z,998.21
2018-02-22T12:01:42.590Z,998.36
2018-02-22T12:02:42.592Z,997.42
2018-02-22T12:03:42.557Z,998.11
2018-02-22T12:04:42.544Z,997.57
2018-02-22T12:05:42.508Z,997.88
2018-02-22T12:06:42.506Z,997.95
2018-02-22T12:07:42.512Z,997.78
2018-02-22T12:08:42.490Z,997.69
2018-02-22T12:09:42.483Z,998.39
2018-02-22T12:10:42.482Z,998.39
2018-02-22T12:11:42.414Z,997.54
2018-02-22T12:12:42.414Z,998.42
2018-02-22T12:13:42.408Z,997.56
2018-02-22T12:14:42.405Z,998.42
2018-02-22T12:15:42.355Z,997.60
2018-02-22T12:16:42.365Z,997.60
2018-02-22T12:17:42.376Z,998.17
2018-02-22T12:18:42.283Z,997.74
2018-02-22T12:19:42.290Z,997.50
2018-02-22T12:20:42.286Z,997.89
2018-02-22T12:21:42.275Z,998.23
2018-02-22T12:22:42.217Z,998.36
2018-02-22T12:23:42.236Z,998.33
2018-02-22T12:24:42.212Z,998.37
2018-02-22T12:25:42.202Z,998.41
2018-02-22T12:26:42.157Z,998.32
2018-02-22T12:27:42.143Z,998.40
2018-02-22T12:28:42.144Z,998.32